Time;durP1;ratioP1;P1;durP2;ratioP2;P2;SDS_P1;SDS_P2;PMS_P1;PMS_P2;Temp;Humidity;BMP_temperature;BMP_pressure;BME280_temperature;BME280_humidity;BME280_pressure;Samples;Min_cycle;Max_cycle;Signal;HPM_P1;HPM_P2
2023/12/28 00:04:08;;;;;;;0.93;0.75;;;;;;;17.56;60.98;100213.63;20829111;28;20059;-70
2023/12/28 00:14:10;;;;;;;3.22;0.98;;;;;;;17.57;61.01;100239.56;20872004;28;20045;-70
2023/12/28 00:24:12;;;;;;;1.73;1.00;;;;;;;17.57;61.00;100255.69;20871699;28;20052;-69
2023/12/28 00:34:14;;;;;;;0.98;0.93;;;;;;;17.57;61.03;100269.16;20852874;28;20052;-70
2023/12/28 00:44:15;;;;;;;0.88;0.77;;;;;;;17.44;60.87;100251.53;20837154;28;20048;-70
2023/12/28 00:54:17;;;;;;;1.73;1.00;;;;;;;17.59;60.85;100294.09;20837846;28;20053;-70
2023/12/28 01:04:19;;;;;;;1.38;1.08;;;;;;;17.57;60.96;100296.94;20821067;28;20057;-70
2023/12/28 01:14:22;;;;;;;1.60;0.98;;;;;;;17.58;60.96;100314.78;20844988;28;20045;-70
2023/12/28 01:24:24;;;;;;;1.10;0.93;;;;;;;17.58;60.80;100313.91;20817594;28;20052;-70
2023/12/28 01:34:27;;;;;;;1.60;1.08;;;;;;;17.59;60.70;100318.31;20816371;28;20057;-70
2023/12/28 01:44:29;;;;;;;1.55;0.98;;;;;;;17.57;60.64;100328.38;20813371;28;20589;-70
2023/12/28 01:54:31;;;;;;;1.67;0.90;;;;;;;17.57;60.75;100333.75;20826195;28;20566;-70
2023/12/28 02:04:33;;;;;;;1.40;0.90;;;;;;;17.56;60.69;100326.69;20862178;28;20049;-70
2023/12/28 02:14:35;;;;;;;1.23;0.95;;;;;;;17.56;60.50;100332.06;20806065;28;20520;-70
2023/12/28 02:25:06;;;;;;;1.65;1.05;;;;;;;17.56;60.54;100322.16;20819378;28;20049;-70
2023/12/28 02:35:23;;;;;;;1.50;1.20;;;;;;;17.56;60.48;100329.38;20807171;28;20067;-70
2023/12/28 02:45:26;;;;;;;2.15;0.80;;;;;;;17.54;60.51;100324.16;20818076;28;20045;-70
2023/12/28 02:55:28;;;;;;;1.75;0.90;;;;;;;17.52;60.51;100336.91;20810506;28;20087;-70
2023/12/28 03:05:30;;;;;;;2.33;1.00;;;;;;;17.49;60.60;100294.97;20784120;28;20049;-70
2023/12/28 03:15:33;;;;;;;2.80;1.20;;;;;;;17.47;60.77;100290.75;20820048;28;20056;-70
2023/12/28 03:25:35;;;;;;;1.42;1.00;;;;;;;17.47;60.78;100293.44;20818987;28;20055;-70
2023/12/28 03:35:36;;;;;;;1.95;1.02;;;;;;;17.48;60.94;100274.44;20789522;28;20076;-70
2023/12/28 03:45:38;;;;;;;1.83;0.80;;;;;;;17.47;60.97;100291.59;20842701;28;20048;-70
2023/12/28 03:55:40;;;;;;;2.05;1.00;;;;;;;17.46;61.00;100283.69;20839850;28;20055;-70
2023/12/28 04:05:43;;;;;;;2.28;0.90;;;;;;;17.36;61.03;100268.41;20819251;28;20157;-70
2023/12/28 04:15:45;;;;;;;1.63;0.98;;;;;;;17.46;60.98;100257.59;20831007;28;20147;-70
2023/12/28 04:25:46;;;;;;;1.98;0.93;;;;;;;17.46;60.84;100272.91;20820080;28;20041;-70
2023/12/28 04:35:48;;;;;;;1.48;0.80;;;;;;;17.43;60.78;100257.03;20812668;28;20423;-70
2023/12/28 04:45:51;;;;;;;1.27;0.93;;;;;;;17.46;61.00;100254.91;20826143;28;20480;-70
2023/12/28 04:55:55;;;;;;;1.35;0.90;;;;;;;17.42;60.70;100263.41;20834288;28;20135;-70
2023/12/28 05:05:57;;;;;;;2.22;1.38;;;;;;;17.48;60.75;100238.63;20850559;28;20052;-70
2023/12/28 05:15:59;;;;;;;1.70;0.77;;;;;;;17.46;60.81;100251.38;20818146;28;20417;-70
2023/12/28 05:26:00;;;;;;;2.63;1.20;;;;;;;17.46;60.66;100260.28;20804363;28;20053;-70
2023/12/28 05:36:02;;;;;;;3.10;1.00;;;;;;;17.49;60.55;100246.53;20795100;28;20053;-70
2023/12/28 05:46:04;;;;;;;2.33;1.02;;;;;;;17.47;60.45;100262.00;20819179;28;20075;-70
2023/12/28 05:56:06;;;;;;;2.88;1.02;;;;;;;17.48;60.51;100266.38;20847221;28;20498;-70
2023/12/28 06:06:08;;;;;;;2.45;0.95;;;;;;;17.49;60.47;100284.22;20790965;28;20056;-70
2023/12/28 06:16:10;;;;;;;2.83;1.00;;;;;;;17.50;60.50;100275.16;20794899;28;20056;-70
2023/12/28 06:26:11;;;;;;;2.80;0.95;;;;;;;17.53;60.49;100285.59;20772325;28;20132;-69
2023/12/28 06:36:13;;;;;;;2.85;1.33;;;;;;;17.56;60.31;100283.63;20826402;28;20080;-70
2023/12/28 06:46:15;;;;;;;4.07;1.10;;;;;;;17.55;60.47;100266.63;20809559;28;20506;-70
2023/12/28 06:56:17;;;;;;;3.67;1.10;;;;;;;17.57;60.29;100285.31;20831737;28;20038;-70
2023/12/28 07:06:19;;;;;;;2.25;1.10;;;;;;;17.57;60.21;100304.16;20806248;28;20449;-70
2023/12/28 07:16:21;;;;;;;3.75;1.20;;;;;;;17.57;60.28;100296.06;20818042;28;20561;-70
2023/12/28 07:26:23;;;;;;;2.22;0.95;;;;;;;17.27;60.06;100263.91;20794041;28;20045;-70
2023/12/28 07:36:24;;;;;;;3.65;1.30;;;;;;;17.60;60.06;100328.06;20801042;28;20124;-70
2023/12/28 07:46:27;;;;;;;2.55;1.13;;;;;;;17.61;60.08;100343.22;20824994;28;20069;-70
2023/12/28 07:56:28;;;;;;;3.00;1.00;;;;;;;17.63;59.83;100349.31;20811902;28;20049;-70
2023/12/28 08:06:32;;;;;;;2.83;1.20;;;;;;;17.62;59.90;100359.25;20819857;28;20061;-70
2023/12/28 08:16:35;;;;;;;4.60;1.45;;;;;;;17.62;59.89;100372.69;20798526;28;20493;-70
2023/12/28 08:26:36;;;;;;;2.65;1.23;;;;;;;17.62;59.76;100374.53;20833387;28;20504;-70
2023/12/28 08:36:38;;;;;;;2.78;1.10;;;;;;;17.63;59.73;100366.31;20829068;28;20630;-70
2023/12/28 08:46:40;;;;;;;4.30;1.40;;;;;;;17.65;59.72;100355.38;20829136;28;20128;-70
2023/12/28 08:56:42;;;;;;;2.67;1.42;;;;;;;17.66;59.86;100381.31;20811707;28;20049;-70
2023/12/28 09:06:44;;;;;;;3.45;1.60;;;;;;;17.65;59.75;100399.31;20816162;28;20049;-70
2023/12/28 09:16:47;;;;;;;2.78;1.50;;;;;;;17.66;59.79;100402.84;20822352;28;20132;-70
2023/12/28 09:26:48;;;;;;;4.00;1.40;;;;;;;17.66;59.71;100397.47;20844574;28;20049;-70
2023/12/28 09:36:51;;;;;;;4.43;1.52;;;;;;;17.64;59.91;100423.69;20842192;28;20062;-68
2023/12/28 09:46:55;;;;;;;3.55;1.38;;;;;;;17.61;60.33;100414.06;20841980;28;20049;-68
2023/12/28 09:56:57;;;;;;;4.53;1.43;;;;;;;17.70;60.30;100423.13;20836132;28;20056;-69
2023/12/28 10:06:59;;;;;;;3.42;1.40;;;;;;;17.91;60.18;100432.81;20827905;28;20072;-69
2023/12/28 10:17:02;;;;;;;3.90;1.25;;;;;;;18.03;60.07;100442.44;20819033;28;20045;-68
2023/12/28 10:27:04;;;;;;;3.80;1.33;;;;;;;18.15;59.80;100461.13;20821159;28;20060;-68
2023/12/28 10:37:06;;;;;;;3.45;1.45;;;;;;;18.19;59.80;100455.25;20823074;28;20425;-70
2023/12/28 10:47:17;;;;;;;3.60;1.35;;;;;;;18.29;59.41;100467.81;20832035;28;20065;-69
2023/12/28 10:57:34;;;;;;;3.20;1.33;;;;;;;18.32;59.47;100446.84;20836499;28;20496;-69
2023/12/28 11:07:36;;;;;;;3.95;1.42;;;;;;;18.39;59.34;100447.91;20813142;28;20160;-69
2023/12/28 11:17:40;;;;;;;5.03;1.40;;;;;;;18.47;59.83;100422.91;20831503;28;20056;-69
2023/12/28 11:27:42;;;;;;;3.30;1.23;;;;;;;18.43;60.09;100409.88;20818931;28;20151;-69
2023/12/28 11:37:47;;;;;;;4.22;1.45;;;;;;;18.61;59.94;100429.63;20803943;28;20532;-69
2023/12/28 11:48:02;;;;;;;3.33;1.00;;;;;;;18.70;60.02;100434.13;20819599;28;20424;-69
2023/12/28 11:58:04;;;;;;;9.25;1.55;;;;;;;18.79;59.64;100437.75;20821115;28;20129;-69
2023/12/28 12:08:08;;;;;;;4.35;1.60;;;;;;;18.79;58.89;100423.41;20805476;28;20156;-68
2023/12/28 12:18:10;;;;;;;4.13;1.10;;;;;;;18.80;58.82;100415.16;20833741;28;20060;-69
2023/12/28 12:28:12;;;;;;;3.05;1.65;;;;;;;18.81;58.37;100424.94;20799316;28;20094;-69
2023/12/28 12:38:14;;;;;;;3.95;1.23;;;;;;;18.83;58.30;100416.69;20808062;28;20053;-69
2023/12/28 12:48:16;;;;;;;2.95;1.30;;;;;;;18.82;58.57;100415.88;20836233;28;20421;-68
2023/12/28 12:58:18;;;;;;;4.05;1.35;;;;;;;18.85;58.82;100414.69;20816577;28;20508;-68
2023/12/28 13:08:20;;;;;;;5.85;1.80;;;;;;;18.90;59.27;100412.38;20797419;28;20109;-67
2023/12/28 13:18:21;;;;;;;3.88;1.35;;;;;;;18.93;59.18;100411.22;20796181;28;20049;-67
2023/12/28 13:28:23;;;;;;;4.20;1.20;;;;;;;18.93;59.40;100412.06;20806832;28;20048;-68
2023/12/28 13:38:25;;;;;;;4.38;1.35;;;;;;;18.94;59.42;100407.53;20799891;28;20050;-68
2023/12/28 13:48:27;;;;;;;4.43;1.38;;;;;;;18.91;59.43;100403.28;20796166;28;20049;-70
2023/12/28 13:58:29;;;;;;;4.65;1.58;;;;;;;18.91;59.85;100391.66;20779157;28;20525;-70
2023/12/28 14:08:31;;;;;;;3.72;1.20;;;;;;;18.91;59.69;100397.88;20797865;28;20501;-68
2023/12/28 14:18:32;;;;;;;4.60;1.60;;;;;;;18.90;59.50;100396.19;20832391;28;20052;-68
2023/12/28 14:28:36;;;;;;;3.33;1.20;;;;;;;18.89;59.11;100390.97;20804003;28;20064;-68
2023/12/28 14:38:38;;;;;;;4.88;1.52;;;;;;;18.87;59.21;100376.78;20819080;28;20056;-69
2023/12/28 14:48:40;;;;;;;6.35;1.90;;;;;;;18.80;59.54;100373.84;20815216;28;20053;-69
2023/12/28 14:58:44;;;;;;;3.72;1.52;;;;;;;18.82;59.32;100370.00;20810074;28;20056;-68
2023/12/28 15:08:48;;;;;;;3.75;1.30;;;;;;;18.84;59.29;100378.78;20800796;28;20048;-66
2023/12/28 15:18:50;;;;;;;5.20;1.42;;;;;;;18.84;59.19;100375.22;20842318;28;20128;-67
2023/12/28 15:28:52;;;;;;;4.15;1.35;;;;;;;18.82;59.38;100367.31;20814135;28;20441;-70
2023/12/28 15:38:54;;;;;;;4.20;1.80;;;;;;;18.84;59.77;100381.50;20781649;28;20045;-71
2023/12/28 15:48:55;;;;;;;4.50;1.25;;;;;;;18.81;60.15;100365.63;20827900;28;20061;-63
2023/12/28 15:58:57;;;;;;;4.90;1.17;;;;;;;18.79;61.43;100350.59;20812037;28;20051;-62
2023/12/28 16:09:00;;;;;;;5.85;2.25;;;;;;;18.75;63.49;100343.81;20801431;28;20053;-63
2023/12/28 16:19:03;;;;;;;192.30;124.88;;;;;;;18.83;65.76;100338.47;20810733;28;20053;-62
2023/12/28 16:29:06;;;;;;;133.90;92.43;;;;;;;18.83;65.27;100315.06;20811953;28;20152;-62
2023/12/28 16:39:08;;;;;;;108.95;74.88;;;;;;;18.79;65.15;100334.41;20810879;28;20053;-65
2023/12/28 16:49:10;;;;;;;102.10;67.90;;;;;;;18.64;65.18;100297.22;20806778;28;20107;-65
2023/12/28 16:59:12;;;;;;;96.43;62.67;;;;;;;18.67;65.36;100310.41;20818202;28;20052;-64
2023/12/28 17:09:13;;;;;;;74.97;50.13;;;;;;;18.60;65.54;100295.84;20812653;28;20045;-63
2023/12/28 17:19:16;;;;;;;64.22;42.90;;;;;;;18.53;65.95;100300.13;20817150;28;20049;-62
2023/12/28 17:29:19;;;;;;;57.33;36.88;;;;;;;18.50;65.91;100297.75;20810207;28;20053;-63
2023/12/28 17:39:22;;;;;;;58.28;37.30;;;;;;;18.46;65.46;100272.13;20810881;28;20063;-62
2023/12/28 17:49:30;;;;;;;50.72;32.60;;;;;;;18.38;65.44;100279.13;20809898;28;20052;-62
2023/12/28 17:59:33;;;;;;;44.22;26.40;;;;;;;18.35;65.19;100274.06;20827325;28;21415;-60
2023/12/28 18:09:40;;;;;;;39.42;27.08;;;;;;;18.29;65.13;100263.03;20820605;28;20087;-60
2023/12/28 18:19:45;;;;;;;33.15;22.65;;;;;;;18.30;65.22;100252.13;20815558;28;20497;-61
2023/12/28 18:29:49;;;;;;;29.20;19.63;;;;;;;18.30;65.31;100249.44;20809306;28;20124;-61
2023/12/28 18:39:51;;;;;;;27.23;17.88;;;;;;;18.32;64.65;100243.88;20821039;28;20079;-61
2023/12/28 18:49:53;;;;;;;24.10;15.60;;;;;;;18.22;64.35;100257.44;20824945;28;21037;-61
2023/12/28 18:59:55;;;;;;;23.08;14.43;;;;;;;18.17;63.90;100246.28;20833146;28;20481;-61
2023/12/28 19:09:57;;;;;;;20.25;13.15;;;;;;;17.93;63.68;100220.75;20812491;28;20480;-61
2023/12/28 19:19:59;;;;;;;19.48;12.40;;;;;;;18.00;63.48;100234.47;20836559;28;20055;-61
2023/12/28 19:30:01;;;;;;;18.10;11.18;;;;;;;17.93;63.09;100229.72;20817544;28;20418;-61
2023/12/28 19:40:03;;;;;;;18.02;10.23;;;;;;;17.86;63.27;100236.69;20830201;28;20508;-60
2023/12/28 19:50:05;;;;;;;16.33;9.60;;;;;;;17.78;63.57;100212.38;20846865;28;20068;-61
2023/12/28 20:00:11;;;;;;;15.93;8.38;;;;;;;17.73;63.55;100193.13;20827916;28;20049;-61
2023/12/28 20:10:12;;;;;;;;;;;;;;;17.70;63.15;100191.59;20839049;28;20057;-60
2023/12/28 20:20:14;;;;;;;13.27;7.45;;;;;;;17.63;63.19;100177.03;20844392;28;20308;-61
2023/12/28 20:30:17;;;;;;;9.90;6.35;;;;;;;17.61;63.34;100170.97;20837458;28;20061;-61
2023/12/28 20:40:19;;;;;;;10.68;5.70;;;;;;;17.58;63.14;100152.44;20849977;28;20088;-61
2023/12/28 20:50:20;;;;;;;9.27;5.70;;;;;;;17.57;63.24;100137.28;20854518;28;20520;-61
2023/12/28 21:00:23;;;;;;;10.55;5.03;;;;;;;17.55;63.12;100137.44;20851707;28;20044;-61
2023/12/28 21:10:24;;;;;;;9.23;5.10;;;;;;;17.58;66.73;100130.91;20834010;28;20052;-61
2023/12/28 21:20:27;;;;;;;11.48;5.38;;;;;;;17.58;68.25;100110.22;20837335;28;20049;-61
2023/12/28 21:30:29;;;;;;;7.55;4.25;;;;;;;17.56;68.01;100105.97;20843554;28;20067;-61
2023/12/28 21:40:31;;;;;;;7.63;3.50;;;;;;;17.52;67.45;100108.97;20835800;28;20051;-61
2023/12/28 21:50:33;;;;;;;7.80;3.78;;;;;;;17.52;67.19;100086.63;20824667;28;20060;-60
2023/12/28 22:00:35;;;;;;;7.07;3.35;;;;;;;17.50;66.85;100078.69;20844908;28;20154;-61
2023/12/28 22:10:36;;;;;;;6.82;2.72;;;;;;;17.51;66.95;100098.41;20856997;28;20069;-61
2023/12/28 22:20:38;;;;;;;5.70;2.80;;;;;;;17.48;66.96;100080.69;20843035;28;20050;-61
2023/12/28 22:30:41;;;;;;;7.13;2.70;;;;;;;17.46;66.99;100074.63;20825734;28;20056;-61
2023/12/28 22:40:44;;;;;;;6.07;2.40;;;;;;;17.46;66.76;100089.94;20843910;28;20394;-61
2023/12/28 22:50:46;;;;;;;5.68;2.75;;;;;;;17.34;66.69;100087.44;20848374;28;20060;-61
2023/12/28 23:00:48;;;;;;;4.63;2.08;;;;;;;17.43;66.64;100091.06;20842076;28;20125;-61
2023/12/28 23:10:50;;;;;;;5.07;2.10;;;;;;;17.42;66.67;100077.75;20843788;28;20053;-61
2023/12/28 23:20:52;;;;;;;5.05;2.45;;;;;;;17.40;66.48;100076.06;20820523;28;20134;-61
2023/12/28 23:30:53;;;;;;;3.42;1.73;;;;;;;17.39;66.39;100081.63;20850426;28;20574;-62
2023/12/28 23:40:55;;;;;;;6.22;2.00;;;;;;;17.27;66.14;100059.47;20848606;28;20063;-61
2023/12/28 23:50:57;;;;;;;2.95;1.42;;;;;;;17.36;66.25;100079.22;20840941;28;20049;-60
